Time;durP1;ratioP1;P1;durP2;ratioP2;P2;SDS_P1;SDS_P2;PMS_P1;PMS_P2;Temp;Humidity;BMP_temperature;BMP_pressure;BME280_temperature;BME280_humidity;BME280_pressure;Samples;Min_cycle;Max_cycle;Signal;HPM_P1;HPM_P2
2021/01/02 00:00:57;;;;;;;31.85;18.77;;;4.50;94.10;;;;;;4973337;28;20066;-53
2021/01/02 00:03:44;;;;;;;32.65;19.63;;;4.50;94.10;;;;;;4972131;28;20034;-49
2021/01/02 00:06:27;;;;;;;28.90;18.63;;;4.60;94.00;;;;;;4973180;28;20053;-52
2021/01/02 00:09:02;;;;;;;35.10;20.42;;;4.60;94.00;;;;;;4972933;28;20129;-54
2021/01/02 00:11:50;;;;;;;31.55;19.30;;;4.60;94.00;;;;;;4969790;28;20435;-53
2021/01/02 00:14:39;;;;;;;33.15;19.17;;;4.50;94.00;;;;;;4963629;28;20065;-53
2021/01/02 00:17:34;;;;;;;29.17;18.63;;;4.50;94.10;;;;;;4961792;28;20093;-52
2021/01/02 00:20:08;;;;;;;30.83;19.00;;;4.50;94.10;;;;;;4971100;28;20054;-53
2021/01/02 00:22:54;;;;;;;34.17;19.17;;;4.50;94.10;;;;;;4973855;28;20154;-50
2021/01/02 00:25:24;;;;;;;26.63;17.73;;;4.50;94.10;;;;;;4969439;28;20046;-50
2021/01/02 00:28:00;;;;;;;30.70;18.73;;;4.50;94.10;;;;;;4963971;28;20121;-53
2021/01/02 00:30:45;;;;;;;32.10;18.83;;;4.50;94.10;;;;;;4972014;28;20051;-53
2021/01/02 00:33:39;;;;;;;28.90;18.48;;;4.50;94.10;;;;;;4973358;28;20078;-49
2021/01/02 00:36:19;;;;;;;29.42;19.05;;;4.50;94.10;;;;;;4977086;28;20053;-51
2021/01/02 00:38:50;;;;;;;33.28;18.70;;;4.50;94.20;;;;;;4988487;28;20050;-54
2021/01/02 00:41:20;;;;;;;31.33;18.92;;;4.50;94.10;;;;;;4973823;28;20074;-55
2021/01/02 00:43:46;;;;;;;29.80;19.15;;;4.50;94.10;;;;;;4972863;28;20035;-56
2021/01/02 00:46:17;;;;;;;29.75;18.63;;;4.50;94.10;;;;;;4973823;28;20047;-55
2021/01/02 00:48:46;;;;;;;32.38;19.83;;;4.50;94.20;;;;;;4972784;28;20039;-54
2021/01/02 00:51:12;;;;;;;31.35;18.92;;;4.50;94.20;;;;;;4973850;28;20027;-55
2021/01/02 00:53:51;;;;;;;34.38;18.63;;;4.50;94.20;;;;;;4964466;28;20066;-53
2021/01/02 00:56:27;;;;;;;31.95;18.45;;;4.60;94.20;;;;;;4972485;28;20050;-53
2021/01/02 00:58:58;;;;;;;30.98;19.25;;;4.60;94.20;;;;;;4968060;28;20150;-57
2021/01/02 01:01:36;;;;;;;32.70;19.38;;;4.60;94.20;;;;;;4973512;28;20491;-56
2021/01/02 01:04:39;;;;;;;33.08;17.77;;;4.60;94.20;;;;;;4966966;28;20046;-55
2021/01/02 01:07:08;;;;;;;31.52;18.83;;;4.70;94.20;;;;;;4960602;28;20093;-53
2021/01/02 01:09:38;;;;;;;33.47;19.63;;;4.70;94.10;;;;;;4973337;28;20076;-53
2021/01/02 01:12:15;;;;;;;29.67;18.20;;;4.70;94.10;;;;;;4964846;28;20078;-55
2021/01/02 01:14:42;;;;;;;33.50;19.73;;;4.70;94.10;;;;;;4979972;28;20058;-48
2021/01/02 01:17:16;;;;;;;30.70;18.33;;;4.70;94.10;;;;;;4970905;28;20431;-52
2021/01/02 01:19:45;;;;;;;33.20;18.30;;;4.60;94.10;;;;;;4971643;28;20047;-50
2021/01/02 01:22:14;;;;;;;31.52;18.95;;;4.60;94.20;;;;;;4962510;28;20062;-52
2021/01/02 01:24:48;;;;;;;31.48;19.25;;;4.60;94.30;;;;;;4972073;28;20491;-52
2021/01/02 01:27:28;;;;;;;29.52;18.17;;;4.60;94.30;;;;;;4973230;28;20048;-51
2021/01/02 01:30:00;;;;;;;30.70;17.85;;;4.70;94.30;;;;;;4972810;28;20090;-50
2021/01/02 01:32:27;;;;;;;34.43;19.70;;;4.70;94.20;;;;;;4964450;28;20034;-50
2021/01/02 01:35:03;;;;;;;31.83;18.20;;;4.70;94.20;;;;;;4972858;28;20320;-52
2021/01/02 01:37:31;;;;;;;29.58;18.08;;;4.70;94.20;;;;;;4985759;28;20049;-49
2021/01/02 01:39:58;;;;;;;30.88;17.90;;;4.70;94.20;;;;;;4968638;28;20039;-52
2021/01/02 01:42:44;;;;;;;27.48;18.05;;;4.70;94.20;;;;;;4971847;28;20498;-50
2021/01/02 01:45:22;;;;;;;28.33;17.52;;;4.80;94.20;;;;;;4971960;28;20129;-52
2021/01/02 01:48:08;;;;;;;27.33;17.83;;;4.80;94.30;;;;;;4972187;28;20511;-52
2021/01/02 01:51:04;;;;;;;26.83;17.00;;;4.80;94.20;;;;;;4969407;28;20043;-49
2021/01/02 01:53:33;;;;;;;31.90;19.08;;;4.80;94.20;;;;;;4971582;28;20181;-51
2021/01/02 01:56:09;;;;;;;32.38;18.08;;;4.80;94.20;;;;;;4963506;28;20065;-52
2021/01/02 01:58:54;;;;;;;26.58;17.25;;;4.80;94.20;;;;;;4968046;28;20557;-51
2021/01/02 02:01:24;;;;;;;30.08;18.65;;;4.80;94.20;;;;;;4979198;28;20074;-51
2021/01/02 02:04:42;;;;;;;31.67;18.63;;;4.80;94.20;;;;;;4972573;28;20187;-49
2021/01/02 02:07:15;;;;;;;28.40;17.20;;;4.80;94.20;;;;;;4981210;28;20126;-50
2021/01/02 02:09:42;;;;;;;30.17;17.92;;;4.80;94.20;;;;;;4972191;28;20047;-51
2021/01/02 02:12:22;;;;;;;29.13;16.63;;;4.80;94.30;;;;;;4971284;28;20047;-54
2021/01/02 02:15:00;;;;;;;32.53;18.27;;;4.90;94.30;;;;;;4972451;28;20055;-49
2021/01/02 02:17:28;;;;;;;26.90;16.45;;;4.90;94.30;;;;;;4969916;28;20067;-53
2021/01/02 02:20:06;;;;;;;29.83;16.92;;;4.90;94.50;;;;;;4971968;28;20039;-52
2021/01/02 02:22:39;;;;;;;29.90;16.88;;;4.90;94.20;;;;;;4986429;28;20402;-53
2021/01/02 02:25:15;;;;;;;29.30;17.42;;;4.90;94.20;;;;;;4972821;28;20043;-56
2021/01/02 02:27:43;;;;;;;26.95;16.92;;;4.90;94.30;;;;;;4975589;28;20042;-56
2021/01/02 02:30:37;;;;;;;31.73;18.00;;;4.90;94.20;;;;;;4976345;28;20042;-56
2021/01/02 02:33:07;;;;;;;31.30;17.52;;;4.90;94.40;;;;;;4975292;28;20051;-55
2021/01/02 02:35:35;;;;;;;33.17;17.02;;;4.90;94.30;;;;;;4969420;28;20494;-56
2021/01/02 02:38:03;;;;;;;35.08;18.05;;;4.80;94.40;;;;;;4975916;28;20110;-53
2021/01/02 02:40:28;;;;;;;27.60;16.77;;;4.80;94.40;;;;;;4976522;28;20035;-56
2021/01/02 02:43:03;;;;;;;33.53;18.23;;;4.80;94.40;;;;;;4974728;28;20134;-53
2021/01/02 02:45:31;;;;;;;31.63;16.70;;;4.80;94.40;;;;;;4975592;28;20038;-56
2021/01/02 02:48:04;;;;;;;30.63;17.33;;;4.80;94.40;;;;;;4974784;28;20510;-56
2021/01/02 02:50:34;;;;;;;29.80;16.90;;;4.80;94.40;;;;;;4965465;28;20041;-55
2021/01/02 02:53:10;;;;;;;33.72;17.48;;;4.80;94.40;;;;;;4989108;28;20070;-53
2021/01/02 02:55:38;;;;;;;30.00;16.42;;;4.90;94.40;;;;;;4974966;28;20047;-53
2021/01/02 02:58:05;;;;;;;29.75;16.95;;;4.90;94.40;;;;;;4973364;28;20046;-53
2021/01/02 03:00:31;;;;;;;32.53;17.92;;;4.90;94.30;;;;;;4972781;28;20047;-52
2021/01/02 03:02:57;;;;;;;30.65;17.27;;;4.80;94.30;;;;;;4966747;28;20047;-51
2021/01/02 03:05:23;;;;;;;30.35;17.55;;;4.80;94.40;;;;;;4974331;28;20048;-55
2021/01/02 03:07:50;;;;;;;31.08;17.70;;;4.80;94.40;;;;;;4976072;28;20373;-54
2021/01/02 03:10:19;;;;;;;26.90;16.33;;;4.90;94.50;;;;;;4974877;28;20049;-51
2021/01/02 03:12:51;;;;;;;29.83;17.42;;;4.80;94.40;;;;;;4974486;28;20104;-53
2021/01/02 03:15:19;;;;;;;31.25;17.77;;;4.90;94.40;;;;;;4974057;28;20059;-51
2021/01/02 03:17:46;;;;;;;28.95;17.35;;;4.90;94.40;;;;;;4975768;28;20066;-52
2021/01/02 03:20:13;;;;;;;33.75;18.40;;;4.90;94.40;;;;;;4989218;28;20089;-53
2021/01/02 03:22:48;;;;;;;29.45;17.55;;;4.90;94.40;;;;;;4974930;28;20082;-53
2021/01/02 03:25:17;;;;;;;30.25;17.25;;;4.90;94.40;;;;;;4974636;28;20043;-51
2021/01/02 03:27:43;;;;;;;28.02;16.73;;;4.90;94.40;;;;;;4990435;28;20074;-53
2021/01/02 03:30:15;;;;;;;31.13;17.25;;;5.00;94.40;;;;;;4975640;28;20043;-55
2021/01/02 03:32:41;;;;;;;31.38;17.65;;;5.00;94.40;;;;;;4975168;28;20404;-55
2021/01/02 03:35:10;;;;;;;32.67;17.42;;;5.00;94.40;;;;;;4972251;28;20050;-51
2021/01/02 03:37:38;;;;;;;31.98;17.30;;;5.00;94.30;;;;;;4973920;28;20129;-54
2021/01/02 03:40:08;;;;;;;36.58;19.52;;;5.00;94.30;;;;;;4975757;28;20047;-54
2021/01/02 03:42:44;;;;;;;30.02;18.55;;;5.00;94.30;;;;;;4974482;28;20109;-51
2021/01/02 03:45:13;;;;;;;33.60;18.13;;;5.00;94.30;;;;;;4964194;28;20057;-52
2021/01/02 03:47:43;;;;;;;41.45;18.58;;;5.00;94.30;;;;;;4975169;28;20038;-52
2021/01/02 03:50:09;;;;;;;34.28;19.02;;;4.90;94.20;;;;;;4973742;28;20090;-49
2021/01/02 03:52:36;;;;;;;35.58;19.50;;;4.90;94.30;;;;;;4972631;28;20039;-51
2021/01/02 03:55:04;;;;;;;36.67;19.38;;;4.90;94.30;;;;;;4977561;28;20463;-53
2021/01/02 03:57:29;;;;;;;38.17;19.27;;;4.80;94.20;;;;;;4977195;28;20038;-56
2021/01/02 03:59:55;;;;;;;36.50;20.25;;;4.80;94.30;;;;;;4982619;28;20069;-52
2021/01/02 04:02:24;;;;;;;35.63;20.88;;;4.80;94.40;;;;;;4991943;28;20213;-52
2021/01/02 04:04:49;;;;;;;36.47;19.48;;;4.80;94.50;;;;;;4981507;28;20039;-52
2021/01/02 04:07:15;;;;;;;35.95;20.08;;;4.80;94.40;;;;;;4971707;28;20065;-55
2021/01/02 04:09:41;;;;;;;37.28;20.35;;;4.80;94.40;;;;;;4974014;28;20091;-53
2021/01/02 04:12:07;;;;;;;41.72;21.35;;;4.80;94.40;;;;;;4977690;28;20049;-53
2021/01/02 04:14:33;;;;;;;39.90;21.33;;;4.80;94.40;;;;;;4993927;28;20550;-53
2021/01/02 04:16:59;;;;;;;40.30;20.42;;;4.80;94.40;;;;;;4973950;28;20063;-52
2021/01/02 04:19:25;;;;;;;37.78;21.33;;;4.90;94.40;;;;;;4976998;28;20097;-53
2021/01/02 04:21:50;;;;;;;38.92;21.50;;;4.80;94.40;;;;;;4969370;28;20051;-54
2021/01/02 04:24:16;;;;;;;39.28;20.45;;;4.80;94.40;;;;;;4972702;28;20133;-53
2021/01/02 04:26:41;;;;;;;35.47;20.67;;;4.80;94.40;;;;;;4978216;28;20046;-52
2021/01/02 04:29:07;;;;;;;38.70;21.60;;;4.80;94.40;;;;;;4973389;28;20151;-53
2021/01/02 04:31:38;;;;;;;40.75;21.02;;;4.80;94.40;;;;;;4975746;28;20058;-51
2021/01/02 04:34:05;;;;;;;39.28;21.13;;;4.80;94.40;;;;;;4976765;28;20051;-52
2021/01/02 04:36:31;;;;;;;40.50;21.38;;;4.80;94.50;;;;;;4975253;28;20090;-53
2021/01/02 04:38:57;;;;;;;44.92;21.48;;;4.80;94.50;;;;;;4990881;28;20038;-53
2021/01/02 04:41:23;;;;;;;41.35;22.45;;;4.80;94.50;;;;;;4975764;28;20046;-55
2021/01/02 04:43:50;;;;;;;40.88;20.83;;;4.80;94.50;;;;;;4977085;28;20039;-55
2021/01/02 04:46:16;;;;;;;42.60;21.92;;;4.80;94.50;;;;;;4978058;28;20169;-51
2021/01/02 04:48:48;;;;;;;45.45;22.90;;;4.80;94.50;;;;;;4976529;28;20511;-50
2021/01/02 04:51:15;;;;;;;42.40;22.02;;;4.80;94.50;;;;;;4992414;28;20046;-53
2021/01/02 04:53:45;;;;;;;48.90;23.15;;;4.80;94.50;;;;;;4972403;28;20046;-53
2021/01/02 04:56:11;;;;;;;47.90;23.08;;;4.80;94.40;;;;;;4975682;28;20066;-51
2021/01/02 04:58:43;;;;;;;42.47;22.70;;;4.80;94.40;;;;;;4977611;28;20039;-50
2021/01/02 05:01:12;;;;;;;44.63;21.70;;;4.80;94.50;;;;;;4990582;28;20042;-52
2021/01/02 05:03:46;;;;;;;46.45;22.77;;;4.80;94.50;;;;;;4977925;28;20119;-50
2021/01/02 05:06:13;;;;;;;45.70;22.83;;;4.80;94.60;;;;;;4982192;28;20051;-50
2021/01/02 05:08:40;;;;;;;44.13;22.38;;;4.80;94.50;;;;;;4973026;28;20130;-51
2021/01/02 05:11:08;;;;;;;48.50;23.63;;;4.80;94.60;;;;;;4973914;28;20038;-49
2021/01/02 05:13:37;;;;;;;44.95;23.45;;;4.80;94.60;;;;;;4973734;28;20057;-53
2021/01/02 05:16:24;;;;;;;43.38;22.02;;;4.90;94.60;;;;;;4973898;28;20074;-49
2021/01/02 05:19:00;;;;;;;44.25;23.50;;;4.80;94.50;;;;;;4968289;28;20039;-50
2021/01/02 05:21:30;;;;;;;44.60;24.27;;;4.80;94.50;;;;;;4977006;28;20047;-54
2021/01/02 05:24:13;;;;;;;47.30;23.70;;;4.90;94.50;;;;;;4976769;28;20049;-54
2021/01/02 05:26:43;;;;;;;46.47;23.75;;;4.90;94.50;;;;;;4973596;28;20039;-51
2021/01/02 05:29:20;;;;;;;45.80;22.40;;;4.90;94.50;;;;;;4975702;28;20089;-52
2021/01/02 05:31:48;;;;;;;43.72;23.20;;;4.90;94.40;;;;;;4976767;28;20046;-49
2021/01/02 05:34:16;;;;;;;43.80;23.10;;;4.90;94.50;;;;;;4973782;28;20109;-52
2021/01/02 05:36:42;;;;;;;45.88;23.02;;;4.80;94.50;;;;;;4974963;28;20065;-52
2021/01/02 05:39:10;;;;;;;46.55;22.30;;;4.80;94.50;;;;;;4975575;28;20047;-50
2021/01/02 05:41:55;;;;;;;52.22;24.00;;;4.80;94.50;;;;;;4976101;28;20122;-49
2021/01/02 05:44:22;;;;;;;46.10;21.48;;;4.80;94.50;;;;;;4975281;28;20047;-53
2021/01/02 05:46:53;;;;;;;46.60;22.83;;;4.80;94.50;;;;;;4973262;28;20389;-49
2021/01/02 05:49:40;;;;;;;53.50;22.73;;;4.70;94.50;;;;;;4973263;28;20070;-53
2021/01/02 05:52:08;;;;;;;55.78;23.02;;;4.80;94.60;;;;;;4967918;28;20035;-51
2021/01/02 05:54:53;;;;;;;47.53;23.30;;;4.70;94.60;;;;;;4973995;28;20442;-53
2021/01/02 05:57:30;;;;;;;49.20;22.15;;;4.70;94.60;;;;;;4976389;28;20054;-55
2021/01/02 05:59:57;;;;;;;55.42;22.90;;;4.80;94.60;;;;;;4975032;28;20093;-56
2021/01/02 06:02:29;;;;;;;51.58;21.88;;;4.80;94.60;;;;;;4975258;28;20569;-54
2021/01/02 06:05:04;;;;;;;52.03;22.10;;;4.70;94.60;;;;;;4973470;28;20062;-55
2021/01/02 06:07:33;;;;;;;51.97;22.17;;;4.70;94.50;;;;;;4961831;28;20042;-54
2021/01/02 06:10:00;;;;;;;44.40;21.38;;;4.70;94.60;;;;;;4971109;28;20038;-55
2021/01/02 06:12:28;;;;;;;50.80;21.45;;;4.70;94.60;;;;;;4973792;28;20039;-55
2021/01/02 06:14:55;;;;;;;50.83;22.42;;;4.60;94.70;;;;;;4972595;28;20453;-50
2021/01/02 06:17:32;;;;;;;51.10;21.25;;;4.70;94.70;;;;;;4972917;28;20047;-53
2021/01/02 06:20:01;;;;;;;50.53;23.08;;;4.60;94.60;;;;;;4971455;28;20034;-50
2021/01/02 06:22:31;;;;;;;49.67;21.95;;;4.60;94.70;;;;;;4972846;28;20038;-52
2021/01/02 06:24:57;;;;;;;49.15;22.98;;;4.60;94.70;;;;;;4971346;28;20043;-51
2021/01/02 06:27:24;;;;;;;51.55;22.38;;;4.60;94.70;;;;;;4975365;28;20101;-55
2021/01/02 06:29:54;;;;;;;48.72;23.23;;;4.60;94.70;;;;;;4989619;28;20050;-52
2021/01/02 06:32:21;;;;;;;47.72;22.00;;;4.60;94.80;;;;;;4975437;28;20118;-53
2021/01/02 06:35:05;;;;;;;45.83;20.55;;;4.60;94.80;;;;;;4972358;28;20050;-52
2021/01/02 06:37:51;;;;;;;50.63;21.88;;;4.60;94.80;;;;;;4974169;28;20114;-51
2021/01/02 06:40:25;;;;;;;52.00;22.42;;;4.60;94.80;;;;;;4975421;28;20067;-55
2021/01/02 06:43:02;;;;;;;51.88;22.95;;;4.60;94.80;;;;;;4975253;28;20039;-52
2021/01/02 06:45:41;;;;;;;56.67;23.17;;;4.60;94.80;;;;;;4971588;28;20442;-51
2021/01/02 06:48:13;;;;;;;58.30;23.90;;;4.70;94.80;;;;;;4975447;28;20496;-52
2021/01/02 06:50:52;;;;;;;60.90;24.10;;;4.70;94.70;;;;;;4970111;28;20105;-55
2021/01/02 06:53:32;;;;;;;58.20;22.60;;;4.70;94.70;;;;;;4969218;28;20301;-52
2021/01/02 06:56:08;;;;;;;52.65;22.75;;;4.70;94.70;;;;;;4971339;28;20097;-53
2021/01/02 06:58:50;;;;;;;60.63;23.10;;;4.70;94.60;;;;;;4975711;28;20479;-54
2021/01/02 07:01:16;;;;;;;64.22;23.85;;;4.60;94.60;;;;;;4970764;28;20130;-54
2021/01/02 07:03:50;;;;;;;56.63;22.98;;;4.60;94.70;;;;;;4970390;28;20145;-54
2021/01/02 07:06:34;;;;;;;63.72;24.38;;;4.50;94.80;;;;;;4970069;28;20582;-54
2021/01/02 07:09:15;;;;;;;51.33;23.33;;;4.50;94.80;;;;;;4976925;28;20039;-50
2021/01/02 07:11:43;;;;;;;53.10;24.35;;;4.50;94.80;;;;;;4973627;28;20069;-53
2021/01/02 07:14:10;;;;;;;57.67;24.50;;;4.50;94.80;;;;;;4980491;28;20047;-53
2021/01/02 07:16:42;;;;;;;53.95;24.05;;;4.60;94.80;;;;;;4980679;28;20046;-52
2021/01/02 07:19:33;;;;;;;46.08;21.25;;;4.60;94.80;;;;;;4975906;28;20124;-53
2021/01/02 07:22:17;;;;;;;46.88;21.33;;;4.60;95.00;;;;;;4973741;28;20058;-51
2021/01/02 07:25:04;;;;;;;50.08;22.25;;;4.50;94.70;;;;;;4976989;28;20118;-55
2021/01/02 07:27:31;;;;;;;47.63;21.55;;;4.60;94.80;;;;;;4975565;28;20188;-57
2021/01/02 07:30:07;;;;;;;47.28;20.70;;;4.60;94.80;;;;;;4974608;28;20035;-52
2021/01/02 07:32:38;;;;;;;46.90;21.15;;;4.60;94.70;;;;;;4997297;28;20062;-55
2021/01/02 07:35:15;;;;;;;50.85;21.75;;;4.60;94.70;;;;;;4978268;28;20054;-54
2021/01/02 07:37:47;;;;;;;50.47;22.15;;;4.60;94.60;;;;;;4980933;28;20045;-56
2021/01/02 07:40:16;;;;;;;44.88;22.00;;;4.60;94.60;;;;;;4989365;28;20042;-56
2021/01/02 07:42:49;;;;;;;45.80;21.48;;;4.60;94.70;;;;;;4980546;28;20066;-56
2021/01/02 07:45:18;;;;;;;47.00;21.95;;;4.60;94.70;;;;;;4972244;28;20148;-55
2021/01/02 07:47:49;;;;;;;50.00;22.55;;;4.70;94.60;;;;;;4998049;28;20095;-56
2021/01/02 07:50:17;;;;;;;49.47;22.47;;;4.60;94.50;;;;;;4982664;28;20047;-56
2021/01/02 07:53:02;;;;;;;56.03;23.20;;;4.60;94.60;;;;;;4975556;28;20797;-56
2021/01/02 07:55:32;;;;;;;52.72;24.17;;;4.60;94.60;;;;;;4974020;28;20514;-55
2021/01/02 07:58:00;;;;;;;66.20;25.75;;;4.50;94.70;;;;;;4980293;28;20047;-53
2021/01/02 08:00:26;;;;;;;65.88;25.90;;;4.60;94.60;;;;;;4978094;28;20053;-53
2021/01/02 08:02:53;;;;;;;59.75;25.50;;;4.60;94.70;;;;;;4977485;28;20415;-54
2021/01/02 08:05:20;;;;;;;60.38;26.52;;;4.60;94.70;;;;;;4980593;28;20047;-54
2021/01/02 08:07:53;;;;;;;59.88;25.90;;;4.60;94.70;;;;;;4968561;28;20428;-54
2021/01/02 08:10:23;;;;;;;61.38;26.83;;;4.60;94.70;;;;;;4978684;28;20455;-55
2021/01/02 08:12:50;;;;;;;59.17;25.10;;;4.60;94.70;;;;;;4978596;28;20123;-53
2021/01/02 08:15:36;;;;;;;54.35;24.40;;;4.60;94.70;;;;;;4978966;28;20401;-53
2021/01/02 08:18:10;;;;;;;59.38;25.83;;;4.60;94.70;;;;;;4974105;28;20074;-52
2021/01/02 08:20:39;;;;;;;60.30;25.80;;;4.70;94.70;;;;;;4983589;28;20484;-55
2021/01/02 08:23:07;;;;;;;59.55;25.40;;;4.70;94.70;;;;;;4976164;28;20059;-54
2021/01/02 08:25:33;;;;;;;56.67;26.10;;;4.70;94.70;;;;;;4975433;28;20074;-53
2021/01/02 08:28:00;;;;;;;63.20;26.58;;;4.70;94.70;;;;;;4979414;28;20046;-56
2021/01/02 08:30:26;;;;;;;56.40;25.70;;;4.70;94.60;;;;;;4977079;28;20039;-56
2021/01/02 08:32:56;;;;;;;63.25;25.80;;;4.70;94.60;;;;;;4977341;28;20097;-49
2021/01/02 08:35:37;;;;;;;60.28;25.00;;;4.70;94.60;;;;;;4981201;28;20039;-50
2021/01/02 08:38:10;;;;;;;61.70;25.38;;;4.70;94.60;;;;;;4978704;28;20085;-54
2021/01/02 08:40:44;;;;;;;66.72;27.40;;;4.70;94.60;;;;;;4977729;28;20050;-53
2021/01/02 08:43:23;;;;;;;64.55;26.05;;;4.70;94.70;;;;;;4973909;28;20047;-52
2021/01/02 08:45:52;;;;;;;61.05;26.30;;;4.70;94.60;;;;;;4963671;28;20379;-53
2021/01/02 08:48:19;;;;;;;72.75;28.35;;;4.70;94.80;;;;;;4978316;28;20043;-53
2021/01/02 08:50:45;;;;;;;64.10;28.45;;;4.70;94.70;;;;;;4979806;28;20411;-57
2021/01/02 08:53:26;;;;;;;73.25;29.55;;;4.70;94.70;;;;;;4991847;28;20435;-55
2021/01/02 08:55:52;;;;;;;65.40;28.10;;;4.80;94.90;;;;;;4972359;28;20117;-56
2021/01/02 08:58:34;;;;;;;73.00;28.52;;;4.70;94.70;;;;;;4976739;28;20039;-56
2021/01/02 09:01:00;;;;;;;74.13;28.08;;;4.80;94.50;;;;;;4991506;28;20080;-53
2021/01/02 09:03:26;;;;;;;64.63;27.20;;;4.70;94.60;;;;;;4974549;28;20042;-56
2021/01/02 09:05:52;;;;;;;62.35;27.23;;;4.70;94.60;;;;;;4973102;28;20054;-56
2021/01/02 09:08:19;;;;;;;58.08;24.45;;;4.70;94.60;;;;;;4974027;28;20054;-57
2021/01/02 09:10:46;;;;;;;49.30;23.88;;;4.70;94.60;;;;;;4972264;28;20053;-57
2021/01/02 09:13:20;;;;;;;58.78;23.95;;;4.70;94.60;;;;;;4972618;28;20050;-56
2021/01/02 09:15:57;;;;;;;60.60;24.13;;;4.70;94.40;;;;;;4985857;28;20045;-56
2021/01/02 09:18:31;;;;;;;58.00;24.50;;;4.70;94.60;;;;;;4972321;28;20051;-57
2021/01/02 09:21:18;;;;;;;56.28;23.48;;;4.70;94.60;;;;;;4973727;28;20043;-56
2021/01/02 09:23:45;;;;;;;58.25;24.40;;;4.70;94.60;;;;;;4964185;28;20051;-56
2021/01/02 09:26:24;;;;;;;44.30;21.02;;;4.70;94.70;;;;;;4973006;28;20055;-56
2021/01/02 09:28:51;;;;;;;43.42;21.75;;;4.70;94.70;;;;;;4972766;28;20070;-55
2021/01/02 09:31:17;;;;;;;47.42;22.75;;;4.80;94.50;;;;;;4972585;28;20042;-56
2021/01/02 09:33:45;;;;;;;50.47;23.20;;;4.70;94.50;;;;;;4978229;28;20493;-56
2021/01/02 09:36:15;;;;;;;49.75;22.42;;;4.70;94.50;;;;;;4965822;28;20113;-56
2021/01/02 09:38:44;;;;;;;52.97;23.50;;;4.70;94.60;;;;;;4972474;28;20462;-57
2021/01/02 09:41:12;;;;;;;55.70;23.92;;;4.70;94.60;;;;;;4973042;28;20074;-57
2021/01/02 09:43:38;;;;;;;54.45;23.63;;;4.70;94.60;;;;;;4970735;28;20049;-55
2021/01/02 09:46:04;;;;;;;56.95;24.85;;;4.70;94.60;;;;;;4965075;28;20122;-56
2021/01/02 09:48:30;;;;;;;50.20;23.80;;;4.70;94.50;;;;;;4974868;28;20043;-56
2021/01/02 09:50:56;;;;;;;54.17;24.65;;;4.70;94.60;;;;;;4974710;28;20090;-56
2021/01/02 09:53:23;;;;;;;56.78;25.55;;;4.70;94.60;;;;;;4988645;28;20046;-56
2021/01/02 09:55:48;;;;;;;57.92;26.00;;;4.80;94.70;;;;;;4974841;28;20483;-55
2021/01/02 09:58:14;;;;;;;60.08;26.20;;;4.80;94.70;;;;;;4974361;28;20039;-56
2021/01/02 10:00:40;;;;;;;59.22;26.42;;;4.90;94.60;;;;;;4988104;28;20121;-56
2021/01/02 10:03:08;;;;;;;58.97;26.67;;;4.80;94.60;;;;;;4972846;28;20100;-57
2021/01/02 10:05:34;;;;;;;56.83;25.73;;;4.90;94.60;;;;;;4971808;28;20564;-56
2021/01/02 10:07:59;;;;;;;51.95;23.83;;;4.90;94.70;;;;;;4975772;28;20039;-56
2021/01/02 10:10:25;;;;;;;58.15;25.70;;;5.00;94.60;;;;;;4972912;28;20034;-56
2021/01/02 10:12:51;;;;;;;54.83;24.23;;;4.90;94.40;;;;;;4972740;28;20050;-56
2021/01/02 10:15:18;;;;;;;55.53;24.10;;;4.90;94.50;;;;;;4975365;28;20074;-57
2021/01/02 10:17:43;;;;;;;47.88;23.63;;;4.90;94.50;;;;;;4987674;28;20514;-56
2021/01/02 10:20:12;;;;;;;43.78;23.13;;;4.90;94.50;;;;;;4973335;28;20059;-56
2021/01/02 10:22:38;;;;;;;47.95;22.67;;;4.90;94.40;;;;;;4972597;28;20118;-56
2021/01/02 10:25:05;;;;;;;49.05;22.33;;;4.90;94.30;;;;;;4974109;28;20141;-56
2021/01/02 10:27:31;;;;;;;47.00;23.00;;;4.90;94.30;;;;;;4971735;28;20047;-55
2021/01/02 10:29:57;;;;;;;49.17;23.23;;;5.00;94.40;;;;;;4973567;28;20523;-53
2021/01/02 10:32:25;;;;;;;44.35;22.42;;;4.90;94.10;;;;;;4973092;28;20086;-56
2021/01/02 10:34:51;;;;;;;50.05;22.92;;;4.90;94.50;;;;;;4974331;28;20043;-55
2021/01/02 10:37:20;;;;;;;51.83;24.38;;;4.90;94.30;;;;;;4971978;28;20219;-55
2021/01/02 10:39:45;;;;;;;51.65;24.80;;;4.90;94.30;;;;;;4972740;28;20085;-56
2021/01/02 10:42:13;;;;;;;44.47;23.42;;;4.80;94.40;;;;;;4971977;28;20745;-56
2021/01/02 10:44:46;;;;;;;46.67;24.55;;;4.90;94.30;;;;;;4971882;28;20055;-56
2021/01/02 10:47:17;;;;;;;48.15;24.05;;;4.90;94.40;;;;;;4974881;28;20041;-55
2021/01/02 10:49:43;;;;;;;45.10;23.30;;;5.00;94.50;;;;;;4975600;28;20050;-56
2021/01/02 10:52:09;;;;;;;45.35;23.23;;;5.00;94.50;;;;;;4969739;28;20290;-56
2021/01/02 10:54:35;;;;;;;50.60;24.17;;;5.00;94.30;;;;;;4975276;28;20053;-56
2021/01/02 10:57:00;;;;;;;46.60;24.42;;;5.10;94.30;;;;;;4962157;28;20079;-57
2021/01/02 10:59:26;;;;;;;47.55;23.88;;;5.10;94.30;;;;;;4981095;28;20047;-56
2021/01/02 11:01:55;;;;;;;46.47;23.67;;;5.10;94.30;;;;;;4956561;28;20492;-56
2021/01/02 11:04:26;;;;;;;50.17;24.73;;;5.00;94.30;;;;;;4973633;28;20126;-57
2021/01/02 11:06:53;;;;;;;50.55;24.77;;;5.10;94.30;;;;;;4986738;28;20037;-56
2021/01/02 11:09:21;;;;;;;49.70;23.60;;;5.10;94.20;;;;;;4977978;28;20561;-57
2021/01/02 11:11:47;;;;;;;44.65;23.25;;;5.10;94.20;;;;;;4977027;28;20047;-57
2021/01/02 11:14:13;;;;;;;45.55;23.55;;;5.10;94.20;;;;;;4985566;28;20426;-56
2021/01/02 11:16:42;;;;;;;46.30;24.15;;;5.10;94.30;;;;;;4958026;28;20039;-55
2021/01/02 11:19:19;;;;;;;49.70;24.02;;;5.10;94.30;;;;;;4975036;28;20035;-55
2021/01/02 11:21:46;;;;;;;46.78;24.27;;;5.20;94.30;;;;;;4974797;28;20410;-55
2021/01/02 11:24:15;;;;;;;45.33;23.13;;;5.10;94.30;;;;;;4974151;28;20042;-55
2021/01/02 11:26:46;;;;;;;49.75;23.90;;;5.10;94.30;;;;;;4974864;28;20101;-55
2021/01/02 11:29:16;;;;;;;50.08;24.90;;;5.20;94.20;;;;;;4975297;28;20047;-55
2021/01/02 11:31:42;;;;;;;48.03;23.05;;;5.20;94.30;;;;;;4974523;28;20462;-55
2021/01/02 11:34:08;;;;;;;42.58;23.02;;;5.20;94.50;;;;;;4974633;28;20093;-55
2021/01/02 11:36:35;;;;;;;48.30;24.20;;;5.20;94.30;;;;;;4974811;28;20070;-56
2021/01/02 11:39:01;;;;;;;51.63;23.95;;;5.20;94.20;;;;;;4975458;28;20050;-55
2021/01/02 11:41:39;;;;;;;50.50;24.10;;;5.30;94.20;;;;;;4974664;28;20146;-54
2021/01/02 11:44:09;;;;;;;49.50;24.80;;;5.30;94.10;;;;;;4976596;28;20039;-54
2021/01/02 11:46:40;;;;;;;55.58;26.02;;;5.30;93.90;;;;;;4973460;28;20142;-55
2021/01/02 11:49:07;;;;;;;51.60;25.90;;;5.30;93.90;;;;;;4974493;28;20070;-55
2021/01/02 11:51:34;;;;;;;54.22;25.48;;;5.20;94.00;;;;;;4984822;28;20049;-55
2021/01/02 11:54:00;;;;;;;47.92;25.05;;;5.20;94.00;;;;;;4976567;28;20113;-54
2021/01/02 11:56:27;;;;;;;45.28;24.83;;;5.20;94.00;;;;;;4973834;28;20130;-54
2021/01/02 11:58:55;;;;;;;49.55;26.25;;;5.20;94.10;;;;;;4987402;28;20121;-54
2021/01/02 12:01:22;;;;;;;49.33;25.75;;;5.30;94.10;;;;;;4974007;28;20043;-50
2021/01/02 12:03:49;;;;;;;49.28;24.77;;;5.20;94.00;;;;;;4987200;28;20042;-53
2021/01/02 12:06:16;;;;;;;48.85;24.88;;;5.20;94.00;;;;;;4974950;28;20491;-54
2021/01/02 12:08:42;;;;;;;46.60;24.63;;;5.20;94.10;;;;;;4985679;28;20129;-55
2021/01/02 12:11:08;;;;;;;55.20;26.15;;;5.20;94.10;;;;;;4975300;28;20034;-56
2021/01/02 12:13:38;;;;;;;52.00;25.60;;;5.20;94.10;;;;;;4973215;28;20054;-53
2021/01/02 12:16:04;;;;;;;50.25;25.48;;;5.20;94.10;;;;;;4971947;28;20077;-53
2021/01/02 12:18:30;;;;;;;51.00;24.83;;;5.20;94.20;;;;;;4974026;28;20442;-53
2021/01/02 12:20:56;;;;;;;51.10;26.85;;;5.20;94.20;;;;;;4973974;28;20042;-53
2021/01/02 12:23:23;;;;;;;51.72;25.90;;;5.20;94.20;;;;;;4973924;28;20172;-55
2021/01/02 12:25:49;;;;;;;48.55;25.02;;;5.20;94.20;;;;;;4956585;28;20539;-51
2021/01/02 12:28:15;;;;;;;48.72;22.67;;;5.30;94.30;;;;;;4974037;28;20074;-52
2021/01/02 12:30:41;;;;;;;56.00;25.15;;;5.30;94.20;;;;;;4973599;28;20039;-50
2021/01/02 12:33:08;;;;;;;47.88;24.08;;;5.40;94.30;;;;;;4972612;28;20073;-52
2021/01/02 12:35:34;;;;;;;53.58;25.42;;;5.40;94.10;;;;;;4988837;28;20047;-53
2021/01/02 12:38:00;;;;;;;49.08;24.33;;;5.40;94.20;;;;;;4973215;28;20041;-53
2021/01/02 12:40:25;;;;;;;48.25;24.88;;;5.40;94.00;;;;;;4973772;28;20043;-52
2021/01/02 12:42:51;;;;;;;52.60;24.20;;;5.40;94.10;;;;;;4971731;28;20042;-52
2021/01/02 12:45:17;;;;;;;53.03;24.60;;;5.40;93.90;;;;;;4973459;28;20049;-51
2021/01/02 12:47:43;;;;;;;51.33;24.52;;;5.40;93.90;;;;;;4973416;28;20083;-56
2021/01/02 12:50:10;;;;;;;45.80;23.95;;;5.40;93.80;;;;;;4973094;28;20045;-56
2021/01/02 12:52:36;;;;;;;57.95;26.52;;;5.40;93.90;;;;;;4964413;28;20470;-57
2021/01/02 12:55:07;;;;;;;52.63;25.77;;;5.40;94.00;;;;;;4996105;28;20046;-56